Time;durP1;ratioP1;P1;durP2;ratioP2;P2;SDS_P1;SDS_P2;PMS_P1;PMS_P2;Temp;Humidity;BMP_temperature;BMP_pressure;BME280_temperature;BME280_humidity;BME280_pressure;Samples;Min_cycle;Max_cycle;Signal;HPM_P1;HPM_P2
2023/01/11 00:00:12;;;;;;;7.93;3.53;;;11.70;99.90;;;;;;5112864;28;20177;-53
2023/01/11 00:02:37;;;;;;;8.77;2.90;;;11.70;99.90;;;;;;5114160;28;20671;-53
2023/01/11 00:05:04;;;;;;;5.35;2.67;;;11.70;99.90;;;;;;5114317;28;20173;-53
2023/01/11 00:07:30;;;;;;;6.05;2.78;;;11.70;99.90;;;;;;5113925;28;20628;-51
2023/01/11 00:09:55;;;;;;;6.50;2.95;;;11.70;99.90;;;;;;5113954;28;20197;-51
2023/01/11 00:12:21;;;;;;;6.22;2.83;;;11.80;99.90;;;;;;5114146;28;20238;-53
2023/01/11 00:14:47;;;;;;;6.35;3.10;;;11.70;99.90;;;;;;5113946;28;20230;-53
2023/01/11 00:17:13;;;;;;;7.53;3.17;;;11.70;99.90;;;;;;5112533;28;20181;-53
2023/01/11 00:19:38;;;;;;;6.90;3.30;;;11.70;99.90;;;;;;5113774;28;20682;-53
2023/01/11 00:22:04;;;;;;;6.80;2.72;;;11.70;99.90;;;;;;5113843;28;20662;-52
2023/01/11 00:24:30;;;;;;;6.18;2.92;;;11.80;99.90;;;;;;5114219;28;20173;-53
2023/01/11 00:26:55;;;;;;;7.53;2.80;;;11.80;99.90;;;;;;5113692;28;20544;-53
2023/01/11 00:29:21;;;;;;;7.78;2.53;;;11.90;99.90;;;;;;5113827;28;20180;-52
2023/01/11 00:31:47;;;;;;;9.23;2.70;;;11.80;99.90;;;;;;5113769;28;20606;-53
2023/01/11 00:34:12;;;;;;;6.03;2.90;;;11.90;99.90;;;;;;5113599;28;20178;-53
2023/01/11 00:36:38;;;;;;;5.88;2.63;;;11.90;99.90;;;;;;5113861;28;20181;-50
2023/01/11 00:39:03;;;;;;;5.05;2.50;;;11.90;99.90;;;;;;5113814;28;20170;-50
2023/01/11 00:49:42;;;;;;;6.68;2.70;;;12.00;99.90;;;;;;5113826;28;20264;-52
2023/01/11 00:52:08;;;;;;;7.40;2.55;;;12.00;99.90;;;;;;5113627;28;20177;-53
2023/01/11 00:54:35;;;;;;;5.22;2.25;;;12.00;99.90;;;;;;5112233;28;20173;-50
2023/01/11 00:57:01;;;;;;;5.45;2.42;;;12.10;99.90;;;;;;5113453;28;20818;-51
2023/01/11 00:59:26;;;;;;;5.53;2.30;;;12.10;99.90;;;;;;5113427;28;20269;-53
2023/01/11 01:01:52;;;;;;;7.15;2.40;;;12.10;99.90;;;;;;5113409;28;20170;-53
2023/01/11 01:04:18;;;;;;;4.55;2.20;;;12.20;99.90;;;;;;5113565;28;20623;-53
2023/01/11 01:06:43;;;;;;;4.88;2.40;;;12.10;99.90;;;;;;5112244;28;20599;-53
2023/01/11 01:09:09;;;;;;;4.25;2.08;;;12.20;99.90;;;;;;5113375;28;20181;-52
2023/01/11 01:11:35;;;;;;;4.80;2.30;;;12.20;99.90;;;;;;5113576;28;20173;-50
2023/01/11 01:16:46;;;;;;;5.05;2.40;;;12.20;99.90;;;;;;5113622;28;20710;-51
2023/01/11 01:19:12;;;;;;;6.57;2.20;;;12.10;99.90;;;;;;5113330;28;20188;-53
2023/01/11 01:21:38;;;;;;;6.53;2.40;;;12.20;99.90;;;;;;5113392;28;20222;-51
2023/01/11 01:24:04;;;;;;;8.57;2.67;;;12.10;99.90;;;;;;5113255;28;20533;-52
2023/01/11 01:26:30;;;;;;;6.43;2.08;;;12.10;99.90;;;;;;5111865;28;20280;-53
2023/01/11 01:28:55;;;;;;;4.07;2.10;;;12.20;99.90;;;;;;5114346;28;20204;-54
2023/01/11 01:31:21;;;;;;;5.93;2.28;;;12.20;99.90;;;;;;5116978;28;20176;-51
2023/01/11 01:33:46;;;;;;;4.15;2.00;;;12.10;99.90;;;;;;5117120;28;20178;-54
2023/01/11 01:36:12;;;;;;;5.35;2.13;;;12.10;99.90;;;;;;5116919;28;20180;-51
2023/01/11 01:38:38;;;;;;;4.65;2.20;;;12.00;99.90;;;;;;5116937;28;20181;-54
2023/01/11 01:41:04;;;;;;;4.22;1.75;;;12.10;99.90;;;;;;5116843;28;20584;-53
2023/01/11 01:43:48;;;;;;;3.88;1.90;;;12.10;99.90;;;;;;5115635;28;20226;-55
2023/01/11 01:46:15;;;;;;;5.53;2.10;;;12.00;99.90;;;;;;5116813;28;20181;-54
2023/01/11 01:48:43;;;;;;;3.83;2.00;;;12.00;99.90;;;;;;5116759;28;20181;-53
2023/01/11 01:51:14;;;;;;;3.40;1.75;;;12.10;99.90;;;;;;5116664;28;20157;-53
2023/01/11 01:53:44;;;;;;;4.60;1.90;;;12.20;99.90;;;;;;5116590;28;20218;-54
2023/01/11 01:56:17;;;;;;;4.55;1.85;;;12.20;99.90;;;;;;5117156;28;20183;-54
2023/01/11 01:58:56;;;;;;;5.32;2.20;;;12.20;99.90;;;;;;5116680;28;20169;-53
2023/01/11 02:04:13;;;;;;;5.00;2.10;;;12.20;99.90;;;;;;5116438;28;20184;-53
2023/01/11 02:06:39;;;;;;;4.95;2.30;;;12.20;99.90;;;;;;5116281;28;20666;-54
2023/01/11 02:09:20;;;;;;;3.67;2.13;;;12.20;99.90;;;;;;5116423;28;20264;-55
2023/01/11 02:11:47;;;;;;;3.72;2.03;;;12.20;99.90;;;;;;5116555;28;20247;-53
2023/01/11 02:14:16;;;;;;;4.72;2.40;;;12.30;99.90;;;;;;5116117;28;20209;-53
2023/01/11 02:16:42;;;;;;;5.95;2.50;;;12.30;99.90;;;;;;5116314;28;20173;-55
2023/01/11 02:19:16;;;;;;;3.55;2.45;;;12.30;99.90;;;;;;5116255;28;20219;-53
2023/01/11 02:22:13;;;;;;;5.80;2.75;;;12.30;99.90;;;;;;5116162;28;20165;-54
2023/01/11 02:24:55;;;;;;;4.90;3.20;;;12.30;99.90;;;;;;5115867;28;20626;-54
2023/01/11 02:27:46;;;;;;;6.78;3.20;;;12.20;99.90;;;;;;5116060;28;20209;-54
2023/01/11 02:30:52;;;;;;;5.18;3.35;;;12.20;99.90;;;;;;5115980;28;20177;-54
2023/01/11 02:33:34;;;;;;;6.60;3.42;;;12.20;99.90;;;;;;5083690;28;20261;-53
2023/01/11 02:36:33;;;;;;;7.55;3.20;;;12.20;99.90;;;;;;5115927;28;20217;-52
2023/01/11 02:39:19;;;;;;;5.38;3.00;;;12.10;99.90;;;;;;5115753;28;20170;-51
2023/01/11 02:45:02;;;;;;;7.60;3.50;;;12.20;99.90;;;;;;5116023;28;20254;-53
2023/01/11 02:47:54;;;;;;;7.45;3.13;;;12.10;99.90;;;;;;5115540;28;20197;-52
2023/01/11 02:50:26;;;;;;;6.22;2.90;;;12.10;99.90;;;;;;5115543;28;20171;-53
2023/01/11 02:53:24;;;;;;;6.35;3.05;;;12.10;99.90;;;;;;5115482;28;20169;-54
2023/01/11 02:55:55;;;;;;;5.95;2.88;;;12.10;99.90;;;;;;5115435;28;20638;-53
2023/01/11 02:58:23;;;;;;;4.68;2.60;;;12.10;99.90;;;;;;5115565;28;20503;-50
2023/01/11 03:00:50;;;;;;;5.93;2.55;;;12.10;99.90;;;;;;5115781;28;20631;-54
2023/01/11 03:03:23;;;;;;;6.10;3.13;;;12.20;99.90;;;;;;5115339;28;20176;-53
2023/01/11 03:05:56;;;;;;;6.50;3.00;;;12.20;99.90;;;;;;5115305;28;20241;-53
2023/01/11 03:08:39;;;;;;;4.40;2.88;;;12.20;99.90;;;;;;5115070;28;20224;-53
2023/01/11 03:11:08;;;;;;;4.57;2.78;;;12.10;99.90;;;;;;5115144;28;20204;-54
2023/01/11 03:14:00;;;;;;;4.35;2.97;;;12.10;99.90;;;;;;5115113;28;20173;-51
2023/01/11 03:16:51;;;;;;;4.53;2.97;;;12.10;99.90;;;;;;5091317;28;20271;-53
2023/01/11 03:19:32;;;;;;;5.93;2.83;;;12.10;99.90;;;;;;5107945;28;20185;-53
2023/01/11 03:22:09;;;;;;;5.53;3.13;;;12.10;99.90;;;;;;5115009;28;20222;-54
2023/01/11 03:24:51;;;;;;;5.72;3.17;;;12.10;99.90;;;;;;5115196;28;20169;-54
2023/01/11 03:27:26;;;;;;;5.50;3.28;;;12.20;99.90;;;;;;5114718;28;20200;-55
2023/01/11 03:30:02;;;;;;;4.35;3.00;;;12.20;99.90;;;;;;5114856;28;20268;-54
2023/01/11 03:32:55;;;;;;;5.57;3.13;;;12.00;99.90;;;;;;5114811;28;20196;-53
2023/01/11 03:35:38;;;;;;;5.88;3.08;;;12.00;99.90;;;;;;5085502;28;20189;-53
2023/01/11 03:38:26;;;;;;;4.40;3.13;;;12.10;99.90;;;;;;5114589;28;20165;-53
2023/01/11 03:40:56;;;;;;;3.58;3.17;;;12.10;99.90;;;;;;5114546;28;20184;-54
2023/01/11 03:43:24;;;;;;;4.60;3.05;;;12.10;99.90;;;;;;5114518;28;20165;-53
2023/01/11 03:46:07;;;;;;;5.78;3.30;;;12.20;99.90;;;;;;5114277;28;20238;-53
2023/01/11 03:48:52;;;;;;;4.03;3.42;;;12.20;99.90;;;;;;5114355;28;20209;-53
2023/01/11 03:51:28;;;;;;;3.22;2.80;;;12.20;99.90;;;;;;5114001;28;20214;-52
2023/01/11 03:54:00;;;;;;;5.60;3.40;;;12.20;99.90;;;;;;5114303;28;20634;-53
2023/01/11 03:56:39;;;;;;;3.50;3.03;;;12.20;99.90;;;;;;5114199;28;20176;-53
2023/01/11 03:59:05;;;;;;;3.58;3.05;;;12.10;99.90;;;;;;5114318;28;20173;-53
2023/01/11 04:01:31;;;;;;;3.10;2.90;;;12.00;99.90;;;;;;5112985;28;20200;-54
2023/01/11 04:03:56;;;;;;;3.28;2.63;;;12.00;99.90;;;;;;5114190;28;20623;-53
2023/01/11 04:06:24;;;;;;;3.30;3.00;;;12.10;99.90;;;;;;5114009;28;20178;-54
2023/01/11 04:08:50;;;;;;;3.45;3.00;;;12.10;99.90;;;;;;5113941;28;20177;-53
2023/01/11 04:11:15;;;;;;;4.65;2.63;;;12.10;99.90;;;;;;5114044;28;20188;-53
2023/01/11 04:13:41;;;;;;;2.78;2.17;;;12.00;99.90;;;;;;5113932;28;20244;-54
2023/01/11 04:16:07;;;;;;;1.80;1.70;;;12.00;99.90;;;;;;5114038;28;20181;-51
2023/01/11 04:18:32;;;;;;;2.85;2.05;;;12.10;99.90;;;;;;5113884;28;20623;-53
2023/01/11 04:20:58;;;;;;;2.78;1.63;;;12.10;99.90;;;;;;5113906;28;20627;-53
2023/01/11 04:23:24;;;;;;;2.88;1.60;;;12.20;99.90;;;;;;5112429;28;20768;-50
2023/01/11 04:25:50;;;;;;;3.15;1.80;;;12.20;99.90;;;;;;5113974;28;20179;-53
2023/01/11 04:28:16;;;;;;;3.80;1.60;;;12.20;99.90;;;;;;5113824;28;20303;-53
2023/01/11 04:30:41;;;;;;;3.53;1.88;;;12.20;99.90;;;;;;5113794;28;20591;-53
2023/01/11 04:33:09;;;;;;;3.30;2.13;;;12.20;99.90;;;;;;5113774;28;20173;-53
2023/01/11 04:35:35;;;;;;;3.60;2.47;;;12.20;99.90;;;;;;5113860;28;20173;-54
2023/01/11 04:38:00;;;;;;;2.67;2.45;;;12.20;99.90;;;;;;5113653;28;20566;-54
2023/01/11 04:40:26;;;;;;;4.22;2.47;;;12.10;99.90;;;;;;5113487;28;20173;-52
2023/01/11 04:42:52;;;;;;;3.05;2.63;;;12.10;99.90;;;;;;5114085;28;20264;-53
2023/01/11 04:45:18;;;;;;;4.05;2.88;;;12.10;99.90;;;;;;5113643;28;20182;-53
2023/01/11 04:47:44;;;;;;;5.13;2.90;;;12.00;99.90;;;;;;5113591;28;20678;-53
2023/01/11 04:50:10;;;;;;;5.20;3.15;;;12.00;99.90;;;;;;5113624;28;20211;-51
2023/01/11 04:52:36;;;;;;;6.78;3.45;;;12.10;99.90;;;;;;5113375;28;20507;-54
2023/01/11 04:55:02;;;;;;;4.68;3.28;;;12.00;99.90;;;;;;5113784;28;20195;-53
2023/01/11 04:57:28;;;;;;;7.78;3.80;;;12.10;99.90;;;;;;5112366;28;20527;-53
2023/01/11 04:59:53;;;;;;;8.77;3.63;;;12.10;99.90;;;;;;5113579;28;20169;-54
2023/01/11 05:02:19;;;;;;;9.00;4.18;;;12.10;99.90;;;;;;5113457;28;20184;-53
2023/01/11 05:04:45;;;;;;;6.70;3.95;;;12.00;99.90;;;;;;5115942;28;20169;-50
2023/01/11 05:07:10;;;;;;;12.38;4.05;;;12.10;99.90;;;;;;5117399;28;20742;-51
2023/01/11 05:09:36;;;;;;;7.78;3.83;;;12.00;99.90;;;;;;5117468;28;20579;-53
2023/01/11 05:12:02;;;;;;;9.70;3.88;;;12.00;99.90;;;;;;5116009;28;20185;-54
2023/01/11 05:14:28;;;;;;;10.95;4.75;;;12.10;99.90;;;;;;5116259;28;20170;-51
2023/01/11 05:16:53;;;;;;;12.65;5.05;;;12.00;99.90;;;;;;5117392;28;20650;-53
2023/01/11 05:19:19;;;;;;;12.43;4.57;;;12.00;99.90;;;;;;5117391;28;20172;-53
2023/01/11 05:21:45;;;;;;;12.93;3.95;;;12.00;99.90;;;;;;5117143;28;20256;-53
2023/01/11 05:24:15;;;;;;;14.23;4.65;;;12.10;99.90;;;;;;5117175;28;20170;-53
2023/01/11 05:26:43;;;;;;;13.73;4.88;;;12.00;99.90;;;;;;5117197;28;20205;-53
2023/01/11 05:29:12;;;;;;;17.27;5.20;;;11.90;99.90;;;;;;5117106;28;20212;-53
2023/01/11 05:31:39;;;;;;;18.05;5.80;;;11.80;99.90;;;;;;5117039;28;20184;-51
2023/01/11 05:34:06;;;;;;;16.42;6.38;;;11.90;99.90;;;;;;5117046;28;20639;-53
2023/01/11 05:36:32;;;;;;;17.60;6.78;;;11.80;99.90;;;;;;5117136;27;20529;-53
2023/01/11 05:38:58;;;;;;;16.08;6.90;;;11.80;99.90;;;;;;5117116;28;20184;-53
2023/01/11 05:41:26;;;;;;;23.38;6.82;;;11.90;99.90;;;;;;5115521;28;20542;-53
2023/01/11 05:46:38;;;;;;;21.33;7.13;;;11.80;99.90;;;;;;5116961;28;20212;-54
2023/01/11 05:49:05;;;;;;;21.95;7.00;;;11.90;99.90;;;;;;5116141;28;20188;-54
2023/01/11 05:51:31;;;;;;;18.83;7.70;;;11.80;99.90;;;;;;5116678;28;20547;-52
2023/01/11 05:54:03;;;;;;;24.20;7.70;;;11.80;99.90;;;;;;5115448;28;20265;-53
2023/01/11 05:56:29;;;;;;;22.15;7.97;;;11.70;99.90;;;;;;5116344;28;20255;-54
2023/01/11 05:58:56;;;;;;;20.00;7.30;;;11.70;99.90;;;;;;5116522;28;20174;-52
2023/01/11 06:01:23;;;;;;;24.48;7.38;;;11.70;99.90;;;;;;5116149;28;20264;-53
2023/01/11 06:03:49;;;;;;;24.30;7.78;;;11.80;99.90;;;;;;5115520;28;20415;-53
2023/01/11 06:06:16;;;;;;;25.10;6.40;;;11.90;99.90;;;;;;5098097;28;20614;-54
2023/01/11 06:08:42;;;;;;;26.05;7.10;;;11.80;99.90;;;;;;5115835;28;20533;-53
2023/01/11 06:11:08;;;;;;;24.30;6.55;;;11.90;99.90;;;;;;5115490;28;20260;-52
2023/01/11 06:13:33;;;;;;;20.35;6.10;;;11.80;99.90;;;;;;5116233;28;20248;-54
2023/01/11 06:16:03;;;;;;;22.10;6.10;;;11.70;99.90;;;;;;5115709;28;20174;-54
2023/01/11 06:18:31;;;;;;;18.10;5.68;;;11.50;99.90;;;;;;5116385;28;20173;-54
2023/01/11 06:20:57;;;;;;;20.58;5.65;;;11.50;99.90;;;;;;5116053;28;20619;-51
2023/01/11 06:23:24;;;;;;;20.25;5.80;;;11.50;99.90;;;;;;5116152;28;20178;-54
2023/01/11 06:25:50;;;;;;;24.95;5.78;;;11.40;99.90;;;;;;5116033;28;20196;-54
2023/01/11 06:28:16;;;;;;;23.88;5.85;;;11.40;99.90;;;;;;5115798;28;20678;-54
2023/01/11 06:30:42;;;;;;;24.30;6.30;;;11.50;99.90;;;;;;5115808;28;20184;-54
2023/01/11 06:33:08;;;;;;;22.42;6.50;;;11.40;99.90;;;;;;5115800;28;20567;-53
2023/01/11 06:35:39;;;;;;;25.63;6.80;;;11.30;99.90;;;;;;5115913;28;20193;-53
2023/01/11 06:38:06;;;;;;;20.00;6.05;;;11.40;99.90;;;;;;5115831;28;20176;-54
2023/01/11 06:40:32;;;;;;;20.17;5.85;;;11.30;99.90;;;;;;5115814;27;20174;-53
2023/01/11 06:42:58;;;;;;;19.85;5.47;;;11.40;99.90;;;;;;5115676;28;20176;-54
2023/01/11 06:45:23;;;;;;;17.73;5.13;;;11.40;99.90;;;;;;5115936;28;20534;-53
2023/01/11 06:47:49;;;;;;;23.88;5.88;;;11.30;99.90;;;;;;5115470;28;20312;-52
2023/01/11 06:50:15;;;;;;;18.45;5.00;;;11.30;99.90;;;;;;5115714;28;20165;-54
2023/01/11 06:52:41;;;;;;;23.52;6.03;;;11.20;99.90;;;;;;5115551;27;20208;-56
2023/01/11 06:55:07;;;;;;;15.88;4.90;;;11.10;99.90;;;;;;5115634;28;20249;-51
2023/01/11 06:57:33;;;;;;;18.73;5.68;;;11.00;99.90;;;;;;5115289;28;20184;-54
2023/01/11 06:59:59;;;;;;;19.08;5.03;;;11.00;99.90;;;;;;5115568;28;20173;-54
2023/01/11 07:02:24;;;;;;;19.17;4.85;;;11.00;99.90;;;;;;5115807;28;20169;-54
2023/01/11 07:04:50;;;;;;;19.40;5.60;;;10.90;99.90;;;;;;5115478;28;20544;-54
2023/01/11 07:07:16;;;;;;;16.77;4.40;;;10.90;99.90;;;;;;5115286;28;20209;-54
2023/01/11 07:09:41;;;;;;;17.35;4.85;;;10.80;99.90;;;;;;5115081;28;20177;-54
2023/01/11 07:12:07;;;;;;;15.35;4.70;;;10.70;99.90;;;;;;5114109;28;20177;-54
2023/01/11 07:14:33;;;;;;;17.90;5.55;;;10.60;99.90;;;;;;5115009;28;20180;-54
2023/01/11 07:16:58;;;;;;;18.45;5.15;;;10.60;99.90;;;;;;5115210;28;20173;-54
2023/01/11 07:19:24;;;;;;;22.50;5.38;;;10.50;99.90;;;;;;5115124;28;20264;-53
2023/01/11 07:21:50;;;;;;;17.23;5.03;;;10.50;99.90;;;;;;5114968;28;20176;-53
2023/01/11 07:24:15;;;;;;;19.88;4.85;;;10.40;99.90;;;;;;5114870;27;20213;-54
2023/01/11 07:26:44;;;;;;;15.48;4.15;;;10.20;99.90;;;;;;5113844;28;20215;-54
2023/01/11 07:29:10;;;;;;;16.13;4.75;;;10.20;99.90;;;;;;5114942;28;20310;-54
2023/01/11 07:31:35;;;;;;;14.52;4.25;;;10.10;99.90;;;;;;5114520;28;20256;-53
2023/01/11 07:34:02;;;;;;;19.60;4.65;;;10.10;99.90;;;;;;5114739;28;20177;-54
2023/01/11 07:36:35;;;;;;;17.60;4.38;;;10.00;99.90;;;;;;5114618;28;20170;-54
2023/01/11 07:39:01;;;;;;;15.57;3.95;;;9.90;99.90;;;;;;5114522;28;20314;-52
2023/01/11 07:44:11;;;;;;;21.02;4.63;;;10.00;99.90;;;;;;5114759;28;20575;-54
2023/01/11 07:46:36;;;;;;;20.83;4.50;;;9.90;99.90;;;;;;5114345;28;20251;-54
2023/01/11 07:49:02;;;;;;;18.58;4.35;;;9.80;99.90;;;;;;5114402;28;20201;-53
2023/01/11 07:51:28;;;;;;;15.68;4.38;;;9.80;99.90;;;;;;5113079;28;20226;-54
2023/01/11 07:53:53;;;;;;;17.10;4.38;;;9.80;99.90;;;;;;5114282;28;20174;-55
2023/01/11 07:56:19;;;;;;;16.27;4.18;;;9.80;99.90;;;;;;5114440;28;20597;-54
2023/01/11 07:58:45;;;;;;;17.67;4.15;;;9.80;99.90;;;;;;5114204;28;20174;-54
2023/01/11 08:01:10;;;;;;;16.83;4.65;;;9.60;99.90;;;;;;5114154;28;20177;-54
2023/01/11 08:03:36;;;;;;;19.02;4.47;;;9.70;99.90;;;;;;5114199;28;20199;-54
2023/01/11 08:06:02;;;;;;;15.05;4.40;;;9.70;99.90;;;;;;5114103;28;20174;-54
2023/01/11 08:08:28;;;;;;;17.20;3.97;;;9.60;99.90;;;;;;5113866;28;20246;-54
2023/01/11 08:16:26;;;;;;;17.45;4.22;;;9.50;99.90;;;;;;5114194;28;20188;-53
2023/01/11 08:18:54;;;;;;;14.07;4.22;;;9.50;99.90;;;;;;5113830;28;20272;-53
2023/01/11 08:21:20;;;;;;;18.73;4.90;;;9.50;99.90;;;;;;5114035;28;20690;-54
2023/01/11 08:23:46;;;;;;;20.80;5.47;;;9.60;99.90;;;;;;5114071;28;20201;-54
2023/01/11 08:26:15;;;;;;;18.75;4.68;;;9.60;99.90;;;;;;5113966;28;20179;-53
2023/01/11 08:28:42;;;;;;;19.75;5.38;;;9.60;99.90;;;;;;5113670;28;20259;-54
2023/01/11 08:31:08;;;;;;;16.77;5.15;;;9.50;99.90;;;;;;5113736;28;20225;-54
2023/01/11 08:33:34;;;;;;;15.65;4.45;;;9.60;99.90;;;;;;5113704;28;20173;-53
2023/01/11 08:36:07;;;;;;;18.55;5.05;;;9.40;99.90;;;;;;5113886;28;20177;-53
2023/01/11 08:38:33;;;;;;;18.48;5.15;;;9.50;99.90;;;;;;5113550;28;20180;-54
2023/01/11 08:41:09;;;;;;;17.85;4.65;;;9.40;99.90;;;;;;5113825;28;20177;-53
2023/01/11 08:43:39;;;;;;;18.38;4.95;;;9.40;99.90;;;;;;5113569;28;20634;-53
2023/01/11 08:46:05;;;;;;;16.77;4.57;;;9.30;99.90;;;;;;5113499;28;20198;-52
2023/01/11 08:48:31;;;;;;;15.00;4.78;;;9.40;99.90;;;;;;5113681;28;20681;-52
2023/01/11 08:50:56;;;;;;;19.15;5.30;;;9.30;99.90;;;;;;5113733;28;20294;-55
2023/01/11 08:53:22;;;;;;;18.98;5.55;;;9.40;99.90;;;;;;5113644;28;20256;-55
2023/01/11 08:55:52;;;;;;;27.05;5.43;;;9.40;99.90;;;;;;5113614;28;20165;-55
2023/01/11 08:58:18;;;;;;;19.15;5.18;;;9.50;99.90;;;;;;5113494;28;20650;-56
2023/01/11 09:00:44;;;;;;;20.83;4.97;;;9.50;99.90;;;;;;5113636;28;20176;-54
2023/01/11 09:03:13;;;;;;;15.98;4.80;;;9.40;99.90;;;;;;5113647;28;20174;-55
2023/01/11 09:05:40;;;;;;;19.70;5.35;;;9.40;99.90;;;;;;5113481;28;20667;-55
2023/01/11 09:08:07;;;;;;;23.65;5.15;;;9.40;99.90;;;;;;5113386;28;20673;-55
2023/01/11 09:10:33;;;;;;;20.05;5.18;;;9.40;99.90;;;;;;5113410;28;20264;-54
2023/01/11 09:12:59;;;;;;;19.50;5.47;;;9.40;99.90;;;;;;5113403;28;20180;-54
2023/01/11 09:15:25;;;;;;;21.02;5.88;;;9.50;99.90;;;;;;5113504;28;20621;-53
2023/01/11 09:17:51;;;;;;;22.05;5.05;;;9.60;99.90;;;;;;5113472;28;20181;-54
2023/01/11 09:20:18;;;;;;;21.58;5.75;;;9.70;99.90;;;;;;5113391;28;20264;-56
2023/01/11 09:22:50;;;;;;;18.23;5.15;;;9.70;99.90;;;;;;5113350;28;20193;-53
2023/01/11 09:25:17;;;;;;;20.50;5.35;;;9.60;99.90;;;;;;5113244;28;20193;-54
2023/01/11 09:27:43;;;;;;;18.48;5.32;;;9.60;99.90;;;;;;5113068;28;20207;-53
2023/01/11 09:30:12;;;;;;;20.88;4.75;;;9.70;99.90;;;;;;5113198;28;20658;-52
2023/01/11 09:32:38;;;;;;;20.05;5.15;;;9.80;99.90;;;;;;5113105;28;20541;-54
2023/01/11 09:35:08;;;;;;;22.83;5.55;;;9.90;99.90;;;;;;5113346;28;20181;-54
2023/01/11 09:37:40;;;;;;;18.48;5.50;;;9.90;99.90;;;;;;5113547;28;20177;-53
2023/01/11 09:40:17;;;;;;;20.33;5.75;;;9.90;99.90;;;;;;5113076;28;20169;-54
2023/01/11 09:42:43;;;;;;;18.60;5.70;;;9.90;99.90;;;;;;5113316;28;20177;-54
2023/01/11 09:45:13;;;;;;;18.65;5.53;;;9.90;99.90;;;;;;5113163;28;20268;-53
2023/01/11 09:48:32;;;;;;;19.63;5.38;;;10.00;99.90;;;;;;5113079;28;20193;-53
2023/01/11 09:50:59;;;;;;;20.92;5.53;;;10.10;99.90;;;;;;5090225;27;20188;-53
2023/01/11 09:53:33;;;;;;;18.92;5.28;;;10.20;99.90;;;;;;5116713;28;20185;-53
2023/01/11 09:56:02;;;;;;;21.92;5.07;;;10.10;99.90;;;;;;5116829;28;20287;-53
2023/01/11 09:58:49;;;;;;;19.73;5.50;;;10.00;99.90;;;;;;5116624;28;20614;-54
2023/01/11 10:01:26;;;;;;;21.25;5.40;;;10.10;99.90;;;;;;5116738;28;20174;-53
2023/01/11 10:04:50;;;;;;;18.67;5.53;;;10.10;99.90;;;;;;5116655;28;20248;-54
2023/01/11 10:07:36;;;;;;;22.08;5.65;;;10.10;99.90;;;;;;5053385;28;20203;-54
2023/01/11 10:10:20;;;;;;;18.60;5.22;;;10.10;99.90;;;;;;5053566;28;20747;-55
2023/01/11 10:13:14;;;;;;;18.38;5.07;;;10.20;99.90;;;;;;5099829;28;20197;-52
2023/01/11 10:16:12;;;;;;;22.77;5.68;;;10.30;99.90;;;;;;5116297;28;20168;-53
2023/01/11 10:18:54;;;;;;;21.38;5.45;;;10.20;99.90;;;;;;5116359;28;20165;-53
2023/01/11 10:21:34;;;;;;;20.42;5.65;;;10.30;99.90;;;;;;5116245;28;20165;-54
2023/01/11 10:24:37;;;;;;;17.42;5.00;;;10.30;99.90;;;;;;5116031;28;20161;-54
2023/01/11 10:27:13;;;;;;;22.30;5.57;;;10.40;99.90;;;;;;5113951;28;20710;-53
2023/01/11 10:30:11;;;;;;;18.73;5.05;;;10.40;99.90;;;;;;5116230;28;20524;-52
2023/01/11 10:35:40;;;;;;;22.80;5.50;;;10.50;99.90;;;;;;5116006;27;20188;-53
2023/01/11 10:38:31;;;;;;;16.08;5.68;;;10.60;99.90;;;;;;5115848;28;20632;-55
2023/01/11 10:41:14;;;;;;;16.38;5.28;;;10.70;99.90;;;;;;5115891;28;20181;-53
2023/01/11 10:43:44;;;;;;;19.27;6.10;;;10.70;99.90;;;;;;5115738;28;20180;-52
2023/01/11 10:46:18;;;;;;;19.50;5.50;;;10.80;99.90;;;;;;5115692;28;20191;-55
2023/01/11 10:48:45;;;;;;;20.77;5.80;;;10.80;99.90;;;;;;5115525;28;20204;-56
2023/01/11 10:51:26;;;;;;;21.88;5.82;;;10.90;99.90;;;;;;5115754;28;20188;-53
2023/01/11 10:54:28;;;;;;;17.10;4.95;;;10.90;99.90;;;;;;5115785;28;20280;-50
2023/01/11 10:57:19;;;;;;;18.65;5.57;;;10.80;99.90;;;;;;5104463;28;20553;-56
2023/01/11 10:59:56;;;;;;;21.80;5.35;;;11.00;99.90;;;;;;5115757;28;20307;-53
2023/01/11 11:02:35;;;;;;;19.33;5.45;;;11.00;99.90;;;;;;5114282;28;20169;-55
2023/01/11 11:05:40;;;;;;;18.42;5.15;;;11.10;99.90;;;;;;5115373;28;20222;-53
2023/01/11 11:08:25;;;;;;;20.30;5.35;;;11.10;99.90;;;;;;5114530;28;20217;-56
2023/01/11 11:11:19;;;;;;;17.42;5.68;;;11.30;99.90;;;;;;5115050;28;20185;-53
2023/01/11 11:14:19;;;;;;;19.55;5.63;;;11.40;99.90;;;;;;5115025;28;20178;-53
2023/01/11 11:16:59;;;;;;;19.23;5.38;;;11.50;99.90;;;;;;5115386;28;20161;-53
2023/01/11 11:19:30;;;;;;;14.77;5.25;;;11.40;99.90;;;;;;5115041;28;20176;-53
2023/01/11 11:21:56;;;;;;;13.77;4.40;;;11.40;99.90;;;;;;5115064;28;20165;-53
2023/01/11 11:24:41;;;;;;;20.48;4.63;;;11.30;99.90;;;;;;5114764;28;20174;-53
2023/01/11 11:27:29;;;;;;;17.60;5.28;;;11.30;99.90;;;;;;5114929;28;20196;-53
2023/01/11 11:29:56;;;;;;;18.48;5.55;;;11.30;99.90;;;;;;5114940;28;20172;-52
2023/01/11 11:32:29;;;;;;;17.20;4.90;;;11.30;99.90;;;;;;5114843;28;20172;-53
2023/01/11 11:34:55;;;;;;;20.50;5.85;;;11.30;99.90;;;;;;5114857;27;20176;-53
2023/01/11 11:37:35;;;;;;;16.98;5.53;;;11.40;99.90;;;;;;5114768;28;20268;-54
2023/01/11 11:40:02;;;;;;;21.00;5.78;;;11.30;99.90;;;;;;5114681;28;20186;-54
2023/01/11 11:42:28;;;;;;;19.30;5.55;;;11.30;99.90;;;;;;5114394;28;20170;-54
2023/01/11 11:45:09;;;;;;;18.15;5.43;;;11.30;99.90;;;;;;5114683;28;20192;-55
2023/01/11 11:47:35;;;;;;;20.45;5.55;;;11.30;99.90;;;;;;5114455;28;20530;-54
2023/01/11 11:50:25;;;;;;;18.58;5.25;;;11.40;99.90;;;;;;5114512;28;20181;-53
2023/01/11 11:52:55;;;;;;;23.13;5.70;;;11.30;99.90;;;;;;5114515;28;20172;-53
2023/01/11 11:55:27;;;;;;;16.90;4.90;;;11.20;99.90;;;;;;5114344;28;20177;-54
2023/01/11 11:57:55;;;;;;;24.20;6.05;;;11.10;99.90;;;;;;5114651;28;20178;-56
2023/01/11 12:00:28;;;;;;;18.38;5.20;;;11.20;99.90;;;;;;5114408;28;20272;-54
2023/01/11 12:03:23;;;;;;;16.67;5.30;;;11.20;99.90;;;;;;5114380;28;20248;-55
2023/01/11 12:06:04;;;;;;;20.27;5.18;;;11.30;99.90;;;;;;5112419;28;20261;-54
2023/01/11 12:08:32;;;;;;;18.73;5.45;;;11.30;99.90;;;;;;5114072;28;20673;-54
2023/01/11 12:11:04;;;;;;;21.33;5.63;;;11.30;99.90;;;;;;5114375;28;20181;-54
2023/01/11 12:13:38;;;;;;;19.88;5.10;;;11.30;99.90;;;;;;5113739;28;20534;-53
2023/01/11 12:16:19;;;;;;;22.00;5.82;;;11.40;99.90;;;;;;5114286;28;20196;-54
2023/01/11 12:18:46;;;;;;;19.25;5.82;;;11.30;99.90;;;;;;5114139;28;20219;-53
2023/01/11 12:21:24;;;;;;;20.52;5.43;;;11.20;99.90;;;;;;5114433;28;20176;-53
2023/01/11 12:24:12;;;;;;;22.23;6.10;;;11.30;99.90;;;;;;5114043;28;20234;-54
2023/01/11 12:26:53;;;;;;;19.42;5.30;;;11.30;99.90;;;;;;5113752;28;20532;-53
2023/01/11 12:29:34;;;;;;;19.50;5.15;;;11.20;99.90;;;;;;5114145;28;20678;-54
2023/01/11 12:32:14;;;;;;;21.65;5.60;;;11.20;99.90;;;;;;5114057;28;20168;-53
2023/01/11 12:34:46;;;;;;;21.13;5.55;;;11.20;99.90;;;;;;5113881;28;20161;-55
2023/01/11 12:37:35;;;;;;;16.88;5.53;;;11.10;99.90;;;;;;5113698;28;20173;-54
2023/01/11 12:40:22;;;;;;;19.85;5.53;;;11.10;99.90;;;;;;5113939;28;20584;-51
2023/01/11 12:43:12;;;;;;;19.35;5.32;;;11.10;99.90;;;;;;5113725;28;20665;-52
2023/01/11 12:45:56;;;;;;;17.80;5.43;;;11.10;99.90;;;;;;5113971;28;20218;-53
2023/01/11 12:48:22;;;;;;;20.55;5.85;;;11.10;99.90;;;;;;5113642;28;20201;-54
2023/01/11 12:50:57;;;;;;;21.95;5.82;;;11.20;99.90;;;;;;5113644;28;20180;-53
2023/01/11 12:53:42;;;;;;;19.98;5.55;;;11.20;99.90;;;;;;5112359;28;20200;-53
2023/01/11 12:56:43;;;;;;;18.55;5.50;;;11.10;99.90;;;;;;5113476;28;20165;-54
2023/01/11 12:59:52;;;;;;;20.27;5.60;;;11.20;99.90;;;;;;5113630;28;20161;-52
2023/01/11 13:02:27;;;;;;;15.05;4.90;;;11.30;99.90;;;;;;5113395;28;20188;-51
2023/01/11 13:05:12;;;;;;;18.27;5.18;;;11.30;99.90;;;;;;5113623;28;20240;-54
2023/01/11 13:07:49;;;;;;;20.83;5.20;;;11.40;99.90;;;;;;5113517;28;20201;-52
2023/01/11 13:10:26;;;;;;;18.55;5.30;;;11.30;99.90;;;;;;5113415;28;20166;-52
2023/01/11 13:13:16;;;;;;;16.92;5.72;;;11.20;99.90;;;;;;5113485;28;20176;-51
2023/01/11 13:15:42;;;;;;;21.92;5.15;;;11.20;99.90;;;;;;5113278;28;20693;-51
2023/01/11 13:18:23;;;;;;;18.88;5.53;;;11.20;99.90;;;;;;5113352;28;20173;-51
2023/01/11 13:21:12;;;;;;;19.45;5.32;;;11.20;99.90;;;;;;5113279;28;20180;-51
2023/01/11 13:23:43;;;;;;;18.50;5.30;;;11.20;99.90;;;;;;5113480;28;20173;-53
2023/01/11 13:26:48;;;;;;;16.20;5.00;;;11.20;99.90;;;;;;5114908;28;20176;-50
2023/01/11 13:29:29;;;;;;;21.13;5.45;;;11.40;99.90;;;;;;5054166;28;20199;-53
2023/01/11 13:31:59;;;;;;;17.08;4.80;;;11.60;99.90;;;;;;5054412;28;20629;-52
2023/01/11 13:35:04;;;;;;;22.17;4.78;;;11.70;99.90;;;;;;5092451;28;20186;-53
2023/01/11 13:37:41;;;;;;;18.63;4.85;;;11.90;99.90;;;;;;5054180;28;20183;-56
2023/01/11 13:40:21;;;;;;;15.55;4.15;;;12.00;99.90;;;;;;5110754;28;20272;-54